Accueil
METAR-TAF:

METAR-TAF

Aéroports :

Base aérienne 701 Salon-de-Provence

Salon-de-Provence, France

latitude: 43-36N, longitude: 005-06E, altitude: 59 m

Observation

Le bulletin a été fait il y a 14 minutes, à 07:30 UTC
Vent 13 kt de nord-ouest, variant entre ouest/nord-ouest et nord
Température 18°C
Humidité 68%
Pression 1005 hPa
Visibilité 10 km ou plus
pas de nuages en-dessous de 1500 mètres et pas de cumulonimbus.

METAR: LFMY 050730Z AUTO 32013KT 290V350 CAVOK 18/12 Q1005 BECMG VRB02KT

Heure: 09:44 (07:44 UTC)

Prévision

Le bulletin a été fait il y a 5 heures et 44 minutes, à 02:00 UTC
Prévision valable du 05 à 03 UTC au 06 à 03 UTC
Vent 2 kt de direction variable
Visibilité 10 km ou plus
pas de nuages en-dessous de 1500 mètres et pas de cumulonimbus.
Evoluant progressivement
du 05 à 10 UTC au 05 à 12 UTC
Vent 15 kt de nord-ouest avec des rafales jusqu'à 25 kt

TAF: LFMY 050200Z 0503/0603 VRB02KT CAVOK BECMG 0510/0512 32015G25KT

Observations et prévisions météorologiques de plus de 4000 aéroports (messages METAR et TAF).

Les stations disponibles sont représentées par des disques jaunes et rouges sur la carte.

Passer la souris dessus pour voir le nom de la station.

Cliquer dessus pour voir les observations et prévisions météorologiques.

Pour changer de carte: cliquez sur les boutons verts avec une croix noire pour zoomer, sur le bouton vert avec un tiret pour effectuer un zoom arrière, ou sur les flèches vertes pour les cartes adjacentes.


METAR-TAF: